createdAt,value
2018-03-20T00:01:30.268Z,2.63
2018-03-20T00:03:56.629Z,2.10
2018-03-20T00:06:23.143Z,3.10
2018-03-20T00:08:49.572Z,2.60
2018-03-20T00:11:16.015Z,1.73
2018-03-20T00:13:42.341Z,2.37
2018-03-20T00:16:08.697Z,2.83
2018-03-20T00:18:35.180Z,2.80
2018-03-20T00:21:01.557Z,2.93
2018-03-20T00:23:27.895Z,2.23
2018-03-20T00:25:54.277Z,2.03
2018-03-20T00:28:20.718Z,3.03
2018-03-20T00:30:47.145Z,3.00
2018-03-20T00:33:13.644Z,2.37
2018-03-20T00:35:39.978Z,3.27
2018-03-20T00:38:06.463Z,2.60
2018-03-20T00:40:32.915Z,1.57
2018-03-20T00:42:59.435Z,2.13
2018-03-20T00:45:25.777Z,3.03
2018-03-20T00:47:52.308Z,1.80
2018-03-20T00:50:18.763Z,2.33
2018-03-20T00:52:45.104Z,3.00
2018-03-20T00:55:11.479Z,2.17
2018-03-20T00:57:37.949Z,2.17
2018-03-20T01:00:04.307Z,2.33
2018-03-20T01:02:30.752Z,2.83
2018-03-20T01:04:57.108Z,1.80
2018-03-20T01:07:23.497Z,2.20
2018-03-20T01:09:49.933Z,2.03
2018-03-20T01:12:16.227Z,1.67
2018-03-20T01:14:42.647Z,2.40
2018-03-20T01:17:09.021Z,2.80
2018-03-20T01:19:35.467Z,2.50
2018-03-20T01:22:01.797Z,2.40
2018-03-20T01:24:28.103Z,1.87
2018-03-20T01:26:55.586Z,3.00
2018-03-20T01:29:21.974Z,1.83
2018-03-20T01:31:48.354Z,2.23
2018-03-20T01:34:14.740Z,1.80
2018-03-20T01:36:41.091Z,2.27
2018-03-20T01:39:07.605Z,2.17
2018-03-20T01:41:33.972Z,4.13
2018-03-20T01:44:00.269Z,2.50
2018-03-20T01:46:26.638Z,2.00
2018-03-20T01:48:53.041Z,1.83
2018-03-20T01:51:19.367Z,2.20
2018-03-20T01:53:45.741Z,2.53
2018-03-20T01:56:12.082Z,2.30
2018-03-20T01:58:38.499Z,3.20
2018-03-20T02:01:04.908Z,2.70
2018-03-20T02:03:31.411Z,2.23
2018-03-20T02:05:57.704Z,1.70
2018-03-20T02:08:24.196Z,2.30
2018-03-20T02:10:50.572Z,3.20
2018-03-20T02:13:16.903Z,2.00
2018-03-20T02:15:43.344Z,2.67
2018-03-20T02:18:09.710Z,3.17
2018-03-20T02:20:36.060Z,1.70
2018-03-20T02:23:02.487Z,1.50
2018-03-20T02:25:28.811Z,2.00
2018-03-20T02:27:55.210Z,1.73
2018-03-20T02:30:21.588Z,1.73
2018-03-20T02:32:47.896Z,2.47
2018-03-20T02:35:14.337Z,2.00
2018-03-20T02:37:40.844Z,1.73
2018-03-20T02:40:07.197Z,1.87
2018-03-20T02:42:33.498Z,1.97
2018-03-20T02:44:59.869Z,2.00
2018-03-20T02:47:26.202Z,1.53
2018-03-20T02:49:52.527Z,2.40
2018-03-20T02:52:19.702Z,1.93
2018-03-20T02:54:46.030Z,2.60
2018-03-20T02:57:12.342Z,1.60
2018-03-20T02:59:38.662Z,1.30
2018-03-20T03:02:05.030Z,1.73
2018-03-20T03:04:31.325Z,1.40
2018-03-20T03:06:57.666Z,1.40
2018-03-20T03:09:25.093Z,1.57
2018-03-20T03:11:51.385Z,1.83
2018-03-20T03:14:17.791Z,1.20
2018-03-20T03:16:44.106Z,1.87
2018-03-20T03:19:10.436Z,1.80
2018-03-20T03:21:36.752Z,1.63
2018-03-20T03:24:03.046Z,1.20
2018-03-20T03:26:29.549Z,1.57
2018-03-20T03:28:56.101Z,1.40
2018-03-20T03:31:22.400Z,1.00
2018-03-20T03:33:48.734Z,1.20
2018-03-20T03:36:15.075Z,1.40
2018-03-20T03:38:42.259Z,1.33
2018-03-20T03:41:08.561Z,1.30
2018-03-20T03:43:34.904Z,1.03
2018-03-20T03:46:01.265Z,1.20
2018-03-20T03:48:27.686Z,1.23
2018-03-20T03:50:54.090Z,1.53
2018-03-20T03:53:20.401Z,1.10
2018-03-20T03:55:46.719Z,1.20
2018-03-20T03:58:13.103Z,1.13
2018-03-20T04:00:39.516Z,1.60
2018-03-20T04:03:05.869Z,1.00
2018-03-20T04:05:32.215Z,1.00
2018-03-20T04:07:58.614Z,1.57
2018-03-20T04:10:24.952Z,1.27
2018-03-20T04:12:51.344Z,1.23
2018-03-20T04:15:17.689Z,1.50
2018-03-20T04:17:44.081Z,1.00
2018-03-20T04:20:10.604Z,1.27
2018-03-20T04:22:36.969Z,0.87
2018-03-20T04:25:03.415Z,1.17
2018-03-20T04:27:29.769Z,1.17
2018-03-20T04:29:56.130Z,1.17
2018-03-20T04:32:22.421Z,1.30
2018-03-20T04:34:48.783Z,1.03
2018-03-20T04:37:15.120Z,0.83
2018-03-20T04:39:41.623Z,1.30
2018-03-20T04:42:07.979Z,1.70
2018-03-20T04:44:34.298Z,0.80
2018-03-20T04:47:00.611Z,0.90
2018-03-20T04:49:27.081Z,1.13
2018-03-20T04:51:53.434Z,1.73
2018-03-20T04:54:19.773Z,0.90
2018-03-20T04:56:46.171Z,0.90
2018-03-20T04:59:12.644Z,2.10
2018-03-20T05:01:39.061Z,0.97
2018-03-20T05:04:05.431Z,0.83
2018-03-20T05:06:31.743Z,1.37
2018-03-20T05:08:58.141Z,1.10
2018-03-20T05:11:24.564Z,1.23
2018-03-20T05:13:50.912Z,1.07
2018-03-20T05:16:17.341Z,0.87
2018-03-20T05:18:44.636Z,0.80
2018-03-20T05:21:16.902Z,0.80
2018-03-20T05:23:56.119Z,0.93
2018-03-20T05:26:22.556Z,1.13
2018-03-20T05:28:48.942Z,1.13
2018-03-20T05:31:15.388Z,0.93
2018-03-20T05:33:41.751Z,1.13
2018-03-20T05:36:08.225Z,1.07
2018-03-20T05:38:34.797Z,0.83
2018-03-20T05:41:01.198Z,1.10
2018-03-20T05:43:27.585Z,0.70
2018-03-20T05:45:54.020Z,1.13
2018-03-20T05:48:20.447Z,0.93
2018-03-20T05:50:52.894Z,0.93
2018-03-20T05:53:19.386Z,1.60
2018-03-20T05:55:45.783Z,1.30
2018-03-20T05:58:12.228Z,0.97
2018-03-20T06:00:38.617Z,1.00
2018-03-20T06:03:04.902Z,0.87
2018-03-20T06:05:31.332Z,0.70
2018-03-20T06:07:57.745Z,0.70
2018-03-20T06:10:24.092Z,1.37
2018-03-20T06:12:50.457Z,0.83
2018-03-20T06:15:16.798Z,1.37
2018-03-20T06:17:43.147Z,0.80
2018-03-20T06:20:09.613Z,1.07
2018-03-20T06:22:36.018Z,1.10
2018-03-20T06:25:02.361Z,1.03
2018-03-20T06:27:28.759Z,0.70
2018-03-20T06:29:55.190Z,0.70
2018-03-20T06:32:21.593Z,2.30
2018-03-20T06:34:47.959Z,1.20
2018-03-20T06:37:14.375Z,1.23
2018-03-20T06:39:40.836Z,1.77
2018-03-20T06:42:07.280Z,6.83
2018-03-20T06:44:33.776Z,19.93
2018-03-20T06:47:00.178Z,4.70
2018-03-20T06:49:26.647Z,4.47
2018-03-20T06:51:53.005Z,4.07
2018-03-20T06:54:19.448Z,2.57
2018-03-20T06:56:45.944Z,2.07
2018-03-20T06:59:12.433Z,1.00
2018-03-20T07:01:38.987Z,1.40
2018-03-20T07:04:05.518Z,1.00
2018-03-20T07:06:31.954Z,1.67
2018-03-20T07:08:58.499Z,1.57
2018-03-20T07:11:25.001Z,1.30
2018-03-20T07:13:51.933Z,1.27
2018-03-20T07:16:18.769Z,1.30
2018-03-20T07:18:45.378Z,1.20
2018-03-20T07:21:11.899Z,1.07
2018-03-20T07:23:38.278Z,1.90
2018-03-20T07:26:04.799Z,2.33
2018-03-20T07:28:31.251Z,3.13
2018-03-20T07:30:57.749Z,1.90
2018-03-20T07:33:24.246Z,1.87
2018-03-20T07:35:50.625Z,1.50
2018-03-20T07:38:16.987Z,1.90
2018-03-20T07:40:43.415Z,2.03
2018-03-20T07:43:09.764Z,2.33
2018-03-20T07:45:36.113Z,2.00
2018-03-20T07:48:02.580Z,1.70
2018-03-20T07:50:28.900Z,1.70
2018-03-20T07:52:55.221Z,1.67
2018-03-20T07:55:21.687Z,1.73
2018-03-20T07:57:48.172Z,1.67
2018-03-20T08:00:14.590Z,1.53
2018-03-20T08:02:41.174Z,2.20
2018-03-20T08:05:07.568Z,1.80
2018-03-20T08:07:34.074Z,1.97
2018-03-20T08:10:00.753Z,3.10
2018-03-20T08:12:27.113Z,2.43
2018-03-20T08:14:53.536Z,2.50
2018-03-20T08:17:19.919Z,2.60
2018-03-20T08:19:46.354Z,1.67
2018-03-20T08:22:12.717Z,1.70
2018-03-20T08:24:39.104Z,1.80
2018-03-20T08:27:05.488Z,2.77
2018-03-20T08:29:31.900Z,1.40
2018-03-20T08:31:58.327Z,1.93
2018-03-20T08:34:24.703Z,1.70
2018-03-20T08:36:51.161Z,1.50
2018-03-20T08:39:17.754Z,1.43
2018-03-20T08:41:44.111Z,1.70
2018-03-20T08:44:10.501Z,1.87
2018-03-20T08:46:36.966Z,1.70
2018-03-20T08:49:03.365Z,4.70
2018-03-20T08:51:29.731Z,1.53
2018-03-20T08:53:56.146Z,1.60
2018-03-20T08:56:22.624Z,1.80
2018-03-20T08:58:48.987Z,2.47
2018-03-20T09:01:15.394Z,2.40
2018-03-20T09:03:41.884Z,1.70
2018-03-20T09:06:08.363Z,2.37
2018-03-20T09:08:34.818Z,1.77
2018-03-20T09:11:01.153Z,2.20
2018-03-20T09:13:27.636Z,2.20
2018-03-20T09:15:54.151Z,2.23
2018-03-20T09:18:20.568Z,3.17
2018-03-20T09:20:47.010Z,1.67
2018-03-20T09:23:13.481Z,2.13
2018-03-20T09:25:39.979Z,1.90
2018-03-20T09:28:06.450Z,2.77
2018-03-20T09:30:33.031Z,2.20
2018-03-20T09:32:59.804Z,3.30
2018-03-20T09:35:26.210Z,3.33
2018-03-20T09:37:52.616Z,2.40
2018-03-20T09:40:19.105Z,2.20
2018-03-20T09:42:45.582Z,3.17
2018-03-20T09:45:12.022Z,2.93
2018-03-20T09:47:38.449Z,2.73
2018-03-20T09:50:04.937Z,3.90
2018-03-20T09:52:31.554Z,3.70
2018-03-20T09:54:57.922Z,3.13
2018-03-20T09:57:24.538Z,2.57
2018-03-20T09:59:51.180Z,2.50
2018-03-20T10:02:17.599Z,2.60
2018-03-20T10:04:43.934Z,5.57
2018-03-20T10:07:10.377Z,3.83
2018-03-20T10:09:36.968Z,3.27
2018-03-20T10:12:03.337Z,2.00
2018-03-20T10:14:29.767Z,3.63
2018-03-20T10:16:56.221Z,4.87
2018-03-20T10:19:22.764Z,3.80
2018-03-20T10:21:49.216Z,4.13
2018-03-20T10:24:15.735Z,3.20
2018-03-20T10:26:42.175Z,4.57
2018-03-20T10:29:08.672Z,2.87
2018-03-20T10:31:35.205Z,4.37
2018-03-20T10:34:01.564Z,2.93
2018-03-20T10:36:28.297Z,3.93
2018-03-20T10:38:54.853Z,2.50
2018-03-20T10:41:21.456Z,2.60
2018-03-20T10:43:47.897Z,9.37
2018-03-20T10:46:14.379Z,4.73
2018-03-20T10:48:40.819Z,4.07
2018-03-20T10:51:08.265Z,5.53
2018-03-20T10:53:34.697Z,4.73
2018-03-20T10:56:01.246Z,4.83
2018-03-20T10:58:27.730Z,3.50
2018-03-20T11:01:00.381Z,4.40
2018-03-20T11:03:26.788Z,3.97
2018-03-20T11:05:53.168Z,4.63
2018-03-20T11:08:19.731Z,3.00
2018-03-20T11:10:46.287Z,3.30
2018-03-20T11:13:13.696Z,2.50
2018-03-20T11:15:40.184Z,3.23
2018-03-20T11:18:06.808Z,2.43
2018-03-20T11:20:33.254Z,2.80
2018-03-20T11:22:59.939Z,4.20
2018-03-20T11:25:26.424Z,2.77
2018-03-20T11:27:52.883Z,2.30
2018-03-20T11:30:19.414Z,2.73
2018-03-20T11:32:45.875Z,2.50
2018-03-20T11:35:12.242Z,5.27
2018-03-20T11:37:38.811Z,2.57
2018-03-20T11:40:05.306Z,2.40
2018-03-20T11:42:31.812Z,2.77
2018-03-20T11:44:58.372Z,2.83
2018-03-20T11:47:24.815Z,3.00
2018-03-20T11:49:51.231Z,2.50
2018-03-20T11:52:17.681Z,2.77
2018-03-20T11:54:44.089Z,2.83
2018-03-20T11:57:10.531Z,2.60
2018-03-20T11:59:37.656Z,3.77
2018-03-20T12:02:04.072Z,3.07
2018-03-20T12:04:30.453Z,3.57
2018-03-20T12:06:58.215Z,3.23
2018-03-20T12:09:48.762Z,4.00
2018-03-20T12:12:15.198Z,3.93
2018-03-20T12:14:41.569Z,3.10
2018-03-20T12:17:08.069Z,3.10
2018-03-20T12:19:34.598Z,2.83
2018-03-20T12:22:01.050Z,2.60
2018-03-20T12:24:27.560Z,2.73
2018-03-20T12:26:53.956Z,2.30
2018-03-20T12:29:20.414Z,2.60
2018-03-20T12:31:46.769Z,2.20
2018-03-20T12:34:13.162Z,1.57
2018-03-20T12:36:39.539Z,1.60
2018-03-20T12:39:06.020Z,1.70
2018-03-20T12:41:32.543Z,1.70
2018-03-20T12:43:58.945Z,1.97
2018-03-20T12:46:25.288Z,2.80
2018-03-20T12:48:52.479Z,1.97
2018-03-20T12:51:18.835Z,1.53
2018-03-20T12:53:45.315Z,1.50
2018-03-20T12:56:11.739Z,1.60
2018-03-20T12:58:38.242Z,1.77
2018-03-20T13:01:04.767Z,1.80
2018-03-20T13:03:31.236Z,1.40
2018-03-20T13:05:57.734Z,1.67
2018-03-20T13:08:24.172Z,2.37
2018-03-20T13:10:50.568Z,2.60
2018-03-20T13:13:17.178Z,2.00
2018-03-20T13:15:43.664Z,2.23
2018-03-20T13:18:10.005Z,1.30
2018-03-20T13:20:36.431Z,1.00
2018-03-20T13:23:02.950Z,1.93
2018-03-20T13:25:29.282Z,1.10
2018-03-20T13:27:55.666Z,1.40
2018-03-20T13:30:22.273Z,1.10
2018-03-20T13:32:48.691Z,1.33
2018-03-20T13:35:15.031Z,1.13
2018-03-20T13:37:41.731Z,0.97
2018-03-20T13:40:08.630Z,1.97
2018-03-20T13:42:35.017Z,0.83
2018-03-20T13:45:01.367Z,1.47
2018-03-20T13:47:27.801Z,0.90
2018-03-20T13:49:54.287Z,1.53
2018-03-20T13:52:20.811Z,1.00
2018-03-20T13:54:47.261Z,1.63
2018-03-20T13:57:13.609Z,3.13
2018-03-20T13:59:40.227Z,1.93
2018-03-20T14:02:06.575Z,0.83
2018-03-20T14:04:33.041Z,1.23
2018-03-20T14:07:00.844Z,1.00
2018-03-20T14:09:27.678Z,0.70
2018-03-20T14:11:54.339Z,0.87
2018-03-20T14:14:21.169Z,1.47
2018-03-20T14:16:48.245Z,2.17
2018-03-20T14:19:14.927Z,1.17
2018-03-20T14:21:41.436Z,1.40
2018-03-20T14:24:07.946Z,1.07
2018-03-20T14:26:34.353Z,1.13
2018-03-20T14:29:01.049Z,1.17
2018-03-20T14:31:28.858Z,1.03
2018-03-20T14:33:55.286Z,2.57
2018-03-20T14:36:21.673Z,0.97
2018-03-20T14:38:48.100Z,1.10
2018-03-20T14:41:14.650Z,1.30
2018-03-20T14:43:41.103Z,3.40
2018-03-20T14:46:07.445Z,1.20
2018-03-20T14:48:33.880Z,2.10
2018-03-20T14:51:00.377Z,1.40
2018-03-20T14:53:26.705Z,2.30
2018-03-20T14:55:53.160Z,1.17
2018-03-20T14:58:19.606Z,0.97
2018-03-20T15:00:46.033Z,0.70
2018-03-20T15:03:12.386Z,1.10
2018-03-20T15:05:38.885Z,1.10
2018-03-20T15:08:05.253Z,1.00
2018-03-20T15:10:31.743Z,0.90
2018-03-20T15:12:58.359Z,1.87
2018-03-20T15:15:24.712Z,1.97
2018-03-20T15:17:51.169Z,1.77
2018-03-20T15:20:17.853Z,2.13
2018-03-20T15:22:44.399Z,1.40
2018-03-20T15:25:10.765Z,0.90
2018-03-20T15:27:37.277Z,0.93
2018-03-20T15:30:04.006Z,1.77
2018-03-20T15:32:30.664Z,1.70
2018-03-20T15:34:57.186Z,1.47
2018-03-20T15:37:23.701Z,2.40
2018-03-20T15:39:51.222Z,1.53
2018-03-20T15:42:17.967Z,0.80
2018-03-20T15:44:44.328Z,1.10
2018-03-20T15:47:10.750Z,1.23
2018-03-20T15:49:37.167Z,0.90
2018-03-20T15:52:03.573Z,1.33
2018-03-20T15:54:30.009Z,0.90
2018-03-20T15:56:56.655Z,1.40
2018-03-20T15:59:23.347Z,1.03
2018-03-20T16:01:49.940Z,1.07
2018-03-20T16:04:16.718Z,0.80
2018-03-20T16:06:43.365Z,1.47
2018-03-20T16:09:09.988Z,1.17
2018-03-20T16:11:36.499Z,1.13
2018-03-20T16:14:02.885Z,1.37
2018-03-20T16:16:29.327Z,0.73
2018-03-20T16:18:56.075Z,1.10
2018-03-20T16:21:22.531Z,2.60
2018-03-20T16:23:49.600Z,1.37
2018-03-20T16:26:16.564Z,1.00
2018-03-20T16:28:43.550Z,1.10
2018-03-20T16:31:10.358Z,1.47
2018-03-20T16:33:38.250Z,1.10
2018-03-20T16:36:04.948Z,1.60
2018-03-20T16:38:31.831Z,1.20
2018-03-20T16:40:58.685Z,1.33
2018-03-20T16:43:25.362Z,1.70
2018-03-20T16:45:52.233Z,1.37
2018-03-20T16:48:19.640Z,1.53
2018-03-20T16:50:46.453Z,2.03
2018-03-20T16:53:13.118Z,3.70
2018-03-20T16:55:39.763Z,1.00
2018-03-20T16:58:06.448Z,1.27
2018-03-20T17:00:33.257Z,1.53
2018-03-20T17:03:00.338Z,1.50
2018-03-20T17:05:27.049Z,2.50
2018-03-20T17:07:53.651Z,1.17
2018-03-20T17:10:20.508Z,1.20
2018-03-20T17:12:47.214Z,1.53
2018-03-20T17:15:14.034Z,1.20
2018-03-20T17:17:40.936Z,1.23
2018-03-20T17:20:08.273Z,3.73
2018-03-20T17:22:34.971Z,2.17
2018-03-20T17:25:01.794Z,1.70
2018-03-20T17:27:28.456Z,3.83
2018-03-20T17:29:55.336Z,1.17
2018-03-20T17:32:22.242Z,2.10
2018-03-20T17:34:49.020Z,1.93
2018-03-20T17:37:15.765Z,1.87
2018-03-20T17:39:42.564Z,2.10
2018-03-20T17:42:09.234Z,1.17
2018-03-20T17:44:35.951Z,1.40
2018-03-20T17:47:03.487Z,1.30
2018-03-20T17:49:30.325Z,1.43
2018-03-20T17:51:57.499Z,2.90
2018-03-20T17:54:24.255Z,1.90
2018-03-20T17:56:50.971Z,1.73
2018-03-20T17:59:17.657Z,1.40
2018-03-20T18:01:44.428Z,1.20
2018-03-20T18:04:11.183Z,1.40
2018-03-20T18:06:37.954Z,1.30
2018-03-20T18:09:04.743Z,4.33
2018-03-20T18:11:31.399Z,2.13
2018-03-20T18:13:58.165Z,2.30
2018-03-20T18:16:24.972Z,1.23
2018-03-20T18:18:52.614Z,1.93
2018-03-20T18:21:19.596Z,1.33
2018-03-20T18:23:46.338Z,1.87
2018-03-20T18:26:13.252Z,2.27
2018-03-20T18:28:40.282Z,1.83
2018-03-20T18:31:07.152Z,2.13
2018-03-20T18:33:33.778Z,1.90
2018-03-20T18:36:00.541Z,2.43
2018-03-20T18:38:27.335Z,2.83
2018-03-20T18:40:54.307Z,2.30
2018-03-20T18:43:21.050Z,1.97
2018-03-20T18:45:47.681Z,1.57
2018-03-20T18:48:14.430Z,1.60
2018-03-20T18:50:41.367Z,1.40
2018-03-20T18:53:08.110Z,1.20
2018-03-20T18:55:34.836Z,1.50
2018-03-20T18:58:01.570Z,2.27
2018-03-20T19:00:28.223Z,1.17
2018-03-20T19:02:55.731Z,3.53
2018-03-20T19:05:22.510Z,1.67
2018-03-20T19:07:49.274Z,1.40
2018-03-20T19:10:17.054Z,2.07
2018-03-20T19:12:43.803Z,1.30
2018-03-20T19:15:10.507Z,1.73
2018-03-20T19:17:37.083Z,1.10
2018-03-20T19:20:03.986Z,1.30
2018-03-20T19:22:30.775Z,1.23
2018-03-20T19:24:57.484Z,1.63
2018-03-20T19:27:24.834Z,1.10
2018-03-20T19:29:51.510Z,1.10
2018-03-20T19:32:18.385Z,9.37
2018-03-20T19:34:45.136Z,1.87
2018-03-20T19:37:11.859Z,2.13
2018-03-20T19:39:38.537Z,1.97
2018-03-20T19:42:05.805Z,2.23
2018-03-20T19:44:32.676Z,3.10
2018-03-20T19:46:59.399Z,2.90
2018-03-20T19:49:26.235Z,1.47
2018-03-20T19:51:52.914Z,2.37
2018-03-20T19:54:19.708Z,1.30
2018-03-20T19:56:46.709Z,1.53
2018-03-20T19:59:13.579Z,1.83
2018-03-20T20:01:40.306Z,3.00
2018-03-20T20:04:07.022Z,5.53
2018-03-20T20:06:33.727Z,1.77
2018-03-20T20:09:00.532Z,2.03
2018-03-20T20:11:27.400Z,1.87
2018-03-20T20:13:54.153Z,1.70
2018-03-20T20:16:21.008Z,2.60
2018-03-20T20:18:47.798Z,1.47
2018-03-20T20:21:14.618Z,1.50
2018-03-20T20:23:41.409Z,1.40
2018-03-20T20:26:08.329Z,3.23
2018-03-20T20:28:34.870Z,3.70
2018-03-20T20:31:01.700Z,2.03
2018-03-20T20:33:28.733Z,3.87
2018-03-20T20:35:56.051Z,6.37
2018-03-20T20:38:22.769Z,1.93
2018-03-20T20:40:49.551Z,1.70
2018-03-20T20:43:16.144Z,1.67
2018-03-20T20:45:42.718Z,1.80
2018-03-20T20:48:09.560Z,2.30
2018-03-20T20:50:36.136Z,1.73
2018-03-20T20:53:02.879Z,1.30
2018-03-20T20:55:29.323Z,1.77
2018-03-20T20:57:55.693Z,2.03
2018-03-20T21:00:22.211Z,1.77
2018-03-20T21:02:48.706Z,1.87
2018-03-20T21:05:15.230Z,3.67
2018-03-20T21:07:41.871Z,2.23
2018-03-20T21:10:08.303Z,1.30
2018-03-20T21:12:34.751Z,1.47
2018-03-20T21:15:01.305Z,2.90
2018-03-20T21:17:27.736Z,2.37
2018-03-20T21:19:54.305Z,1.50
2018-03-20T21:22:20.814Z,1.60
2018-03-20T21:24:47.161Z,1.67
2018-03-20T21:27:13.533Z,3.60
2018-03-20T21:29:40.061Z,3.40
2018-03-20T21:32:06.467Z,1.60
2018-03-20T21:34:32.904Z,3.77
2018-03-20T21:36:59.284Z,1.30
2018-03-20T21:39:25.761Z,2.00
2018-03-20T21:41:52.187Z,2.77
2018-03-20T21:44:18.528Z,2.67
2018-03-20T21:46:44.866Z,2.73
2018-03-20T21:49:11.338Z,6.63
2018-03-20T21:51:38.013Z,2.80
2018-03-20T21:54:04.535Z,2.70
2018-03-20T21:56:30.906Z,4.37
2018-03-20T21:58:57.313Z,2.40
2018-03-20T22:01:23.668Z,2.33
2018-03-20T22:03:50.051Z,3.43
2018-03-20T22:06:16.460Z,2.87
2018-03-20T22:08:42.787Z,2.87
2018-03-20T22:11:09.252Z,2.27
2018-03-20T22:13:35.573Z,2.67
2018-03-20T22:16:02.434Z,2.67
2018-03-20T22:18:28.991Z,2.70
2018-03-20T22:20:55.396Z,2.23
2018-03-20T22:23:21.757Z,2.50
2018-03-20T22:25:48.174Z,4.07
2018-03-20T22:28:14.553Z,4.00
2018-03-20T22:30:41.040Z,3.30
2018-03-20T22:33:07.570Z,2.70
2018-03-20T22:35:33.975Z,4.50
2018-03-20T22:38:00.351Z,5.73
2018-03-20T22:40:26.925Z,4.40
2018-03-20T22:42:53.469Z,3.23
2018-03-20T22:45:19.817Z,5.00
2018-03-20T22:47:46.357Z,3.80
2018-03-20T22:50:12.890Z,4.77
2018-03-20T22:52:39.255Z,6.87
2018-03-20T22:55:05.791Z,8.70
2018-03-20T22:57:32.263Z,3.77
2018-03-20T22:59:58.883Z,4.87
2018-03-20T23:02:25.367Z,8.40
2018-03-20T23:04:51.967Z,6.73
2018-03-20T23:07:18.409Z,8.17
2018-03-20T23:09:44.844Z,8.37
2018-03-20T23:12:11.325Z,8.73
2018-03-20T23:14:37.696Z,6.60
2018-03-20T23:17:04.229Z,9.43
2018-03-20T23:19:30.721Z,10.27
2018-03-20T23:21:57.236Z,6.90
2018-03-20T23:24:23.605Z,9.57
2018-03-20T23:26:50.008Z,8.67
2018-03-20T23:29:16.498Z,9.43
2018-03-20T23:31:42.878Z,11.40
2018-03-20T23:34:09.226Z,9.37
2018-03-20T23:36:35.558Z,11.77
2018-03-20T23:39:01.963Z,10.33
2018-03-20T23:41:28.400Z,9.90
2018-03-20T23:43:54.708Z,9.90
2018-03-20T23:46:21.066Z,9.90
2018-03-20T23:48:47.372Z,11.67
2018-03-20T23:51:13.972Z,9.47
2018-03-20T23:53:40.475Z,8.60
2018-03-20T23:56:06.819Z,7.63
2018-03-20T23:58:33.191Z,8.23
